Terminal Aerodrome Forecast
Issued by NWS

Home | Current Version | Previous Version | Text Only | Print | Product List | Glossary Off
Versions: 1 2 3 4 5 6 7 8 9 10 11 12 13 14 15 16

000
FTUS43 KMPX 261700
TAFRWF
TAF
KRWF 261733Z 2618/2718 VRB03KT P6SM FEW250
     FM262300 00000KT P6SM BKN090
     FM271500 13005KT P6SM BKN250=

USA.gov is the U.S. government's official web portal to all federal, state and local government web resources and services.